sensor_id;sensor_type;location;lat;lon;timestamp;P1;durP1;ratioP1;P2;durP2;ratioP2
9106;SDS011;4589;48.690;8.952;2022-12-08T00:01:28;17.52;;;9.60;;
9106;SDS011;4589;48.690;8.952;2022-12-08T00:03:56;17.63;;;11.10;;
9106;SDS011;4589;48.690;8.952;2022-12-08T00:06:24;15.27;;;9.63;;
9106;SDS011;4589;48.690;8.952;2022-12-08T00:09:17;16.20;;;10.20;;
9106;SDS011;4589;48.690;8.952;2022-12-08T00:11:57;18.05;;;10.30;;
9106;SDS011;4589;48.690;8.952;2022-12-08T00:14:30;15.10;;;10.38;;
9106;SDS011;4589;48.690;8.952;2022-12-08T00:16:57;15.95;;;10.88;;
9106;SDS011;4589;48.690;8.952;2022-12-08T00:19:24;19.58;;;9.82;;
9106;SDS011;4589;48.690;8.952;2022-12-08T00:21:51;16.90;;;10.80;;
9106;SDS011;4589;48.690;8.952;2022-12-08T00:24:18;19.50;;;11.65;;
9106;SDS011;4589;48.690;8.952;2022-12-08T00:26:44;15.90;;;10.73;;
9106;SDS011;4589;48.690;8.952;2022-12-08T00:29:11;16.40;;;9.50;;
9106;SDS011;4589;48.690;8.952;2022-12-08T00:31:37;17.60;;;9.52;;
9106;SDS011;4589;48.690;8.952;2022-12-08T00:34:03;16.08;;;9.63;;
9106;SDS011;4589;48.690;8.952;2022-12-08T00:36:29;19.23;;;10.52;;
9106;SDS011;4589;48.690;8.952;2022-12-08T00:38:55;16.53;;;10.57;;
9106;SDS011;4589;48.690;8.952;2022-12-08T00:41:22;17.27;;;10.18;;
9106;SDS011;4589;48.690;8.952;2022-12-08T00:44:07;15.90;;;9.95;;
9106;SDS011;4589;48.690;8.952;2022-12-08T00:46:34;14.82;;;9.95;;
9106;SDS011;4589;48.690;8.952;2022-12-08T00:49:01;21.98;;;11.60;;
9106;SDS011;4589;48.690;8.952;2022-12-08T00:51:27;17.98;;;10.65;;
9106;SDS011;4589;48.690;8.952;2022-12-08T00:53:52;15.20;;;9.80;;
9106;SDS011;4589;48.690;8.952;2022-12-08T00:56:18;15.70;;;10.37;;
9106;SDS011;4589;48.690;8.952;2022-12-08T00:58:44;13.83;;;10.20;;
9106;SDS011;4589;48.690;8.952;2022-12-08T01:01:11;13.23;;;9.00;;
9106;SDS011;4589;48.690;8.952;2022-12-08T01:03:37;16.63;;;10.50;;
9106;SDS011;4589;48.690;8.952;2022-12-08T01:06:04;18.02;;;11.02;;
9106;SDS011;4589;48.690;8.952;2022-12-08T01:08:30;16.83;;;10.15;;
9106;SDS011;4589;48.690;8.952;2022-12-08T01:11:01;15.07;;;10.03;;
9106;SDS011;4589;48.690;8.952;2022-12-08T01:13:28;15.05;;;9.68;;
9106;SDS011;4589;48.690;8.952;2022-12-08T01:15:54;16.70;;;9.80;;
9106;SDS011;4589;48.690;8.952;2022-12-08T01:18:19;14.60;;;10.17;;
9106;SDS011;4589;48.690;8.952;2022-12-08T01:20:45;13.97;;;8.87;;
9106;SDS011;4589;48.690;8.952;2022-12-08T01:23:11;18.40;;;9.83;;
9106;SDS011;4589;48.690;8.952;2022-12-08T01:25:37;14.50;;;8.00;;
9106;SDS011;4589;48.690;8.952;2022-12-08T01:28:03;18.23;;;11.40;;
9106;SDS011;4589;48.690;8.952;2022-12-08T01:30:28;18.30;;;9.53;;
9106;SDS011;4589;48.690;8.952;2022-12-08T01:32:54;16.33;;;9.90;;
9106;SDS011;4589;48.690;8.952;2022-12-08T01:35:20;16.50;;;9.25;;
9106;SDS011;4589;48.690;8.952;2022-12-08T01:48:27;15.20;;;9.23;;
9106;SDS011;4589;48.690;8.952;2022-12-08T01:50:54;18.95;;;10.80;;
9106;SDS011;4589;48.690;8.952;2022-12-08T01:53:22;21.30;;;11.70;;
9106;SDS011;4589;48.690;8.952;2022-12-08T01:58:34;24.30;;;12.07;;
9106;SDS011;4589;48.690;8.952;2022-12-08T02:01:02;17.85;;;10.82;;
9106;SDS011;4589;48.690;8.952;2022-12-08T02:03:38;17.05;;;10.27;;
9106;SDS011;4589;48.690;8.952;2022-12-08T02:06:07;22.45;;;11.43;;
9106;SDS011;4589;48.690;8.952;2022-12-08T02:08:34;20.10;;;11.50;;
9106;SDS011;4589;48.690;8.952;2022-12-08T02:11:04;17.05;;;10.65;;
9106;SDS011;4589;48.690;8.952;2022-12-08T02:13:30;17.65;;;9.93;;
9106;SDS011;4589;48.690;8.952;2022-12-08T02:16:11;24.10;;;11.02;;
9106;SDS011;4589;48.690;8.952;2022-12-08T02:24:17;19.75;;;9.45;;
9106;SDS011;4589;48.690;8.952;2022-12-08T02:35:23;17.45;;;9.88;;
9106;SDS011;4589;48.690;8.952;2022-12-08T02:38:13;17.80;;;9.90;;
9106;SDS011;4589;48.690;8.952;2022-12-08T02:40:58;15.68;;;9.50;;
9106;SDS011;4589;48.690;8.952;2022-12-08T02:46:01;17.45;;;11.68;;
9106;SDS011;4589;48.690;8.952;2022-12-08T02:48:32;21.65;;;11.10;;
9106;SDS011;4589;48.690;8.952;2022-12-08T02:50:58;25.08;;;15.48;;
9106;SDS011;4589;48.690;8.952;2022-12-08T02:53:25;21.80;;;12.37;;
9106;SDS011;4589;48.690;8.952;2022-12-08T02:56:02;19.88;;;11.90;;
9106;SDS011;4589;48.690;8.952;2022-12-08T03:04:21;18.55;;;10.43;;
9106;SDS011;4589;48.690;8.952;2022-12-08T03:07:03;16.25;;;9.85;;
9106;SDS011;4589;48.690;8.952;2022-12-08T03:09:41;17.45;;;10.05;;
9106;SDS011;4589;48.690;8.952;2022-12-08T03:12:37;13.82;;;8.18;;
9106;SDS011;4589;48.690;8.952;2022-12-08T03:15:09;13.00;;;8.23;;
9106;SDS011;4589;48.690;8.952;2022-12-08T03:17:39;15.38;;;8.73;;
9106;SDS011;4589;48.690;8.952;2022-12-08T03:20:09;17.17;;;9.43;;
9106;SDS011;4589;48.690;8.952;2022-12-08T03:22:38;12.52;;;8.32;;
9106;SDS011;4589;48.690;8.952;2022-12-08T03:25:06;17.08;;;10.00;;
9106;SDS011;4589;48.690;8.952;2022-12-08T03:27:34;15.95;;;8.93;;
9106;SDS011;4589;48.690;8.952;2022-12-08T03:30:00;13.37;;;7.83;;
9106;SDS011;4589;48.690;8.952;2022-12-08T03:32:32;12.18;;;8.20;;
9106;SDS011;4589;48.690;8.952;2022-12-08T03:35:08;15.00;;;8.98;;
9106;SDS011;4589;48.690;8.952;2022-12-08T03:37:38;17.33;;;8.77;;
9106;SDS011;4589;48.690;8.952;2022-12-08T03:40:06;16.80;;;8.70;;
9106;SDS011;4589;48.690;8.952;2022-12-08T03:42:33;16.30;;;8.63;;
9106;SDS011;4589;48.690;8.952;2022-12-08T03:44:59;15.67;;;10.03;;
9106;SDS011;4589;48.690;8.952;2022-12-08T03:47:25;15.37;;;9.10;;
9106;SDS011;4589;48.690;8.952;2022-12-08T03:49:51;12.13;;;8.93;;
9106;SDS011;4589;48.690;8.952;2022-12-08T03:52:16;13.43;;;7.20;;
9106;SDS011;4589;48.690;8.952;2022-12-08T03:54:42;14.80;;;8.10;;
9106;SDS011;4589;48.690;8.952;2022-12-08T03:57:08;11.37;;;8.30;;
9106;SDS011;4589;48.690;8.952;2022-12-08T03:59:33;13.57;;;8.27;;
9106;SDS011;4589;48.690;8.952;2022-12-08T04:01:59;15.80;;;8.93;;
9106;SDS011;4589;48.690;8.952;2022-12-08T04:04:25;16.27;;;8.63;;
9106;SDS011;4589;48.690;8.952;2022-12-08T04:06:51;14.67;;;8.03;;
9106;SDS011;4589;48.690;8.952;2022-12-08T04:09:16;15.30;;;9.00;;
9106;SDS011;4589;48.690;8.952;2022-12-08T04:11:42;15.50;;;9.17;;
9106;SDS011;4589;48.690;8.952;2022-12-08T04:14:08;13.07;;;7.60;;
9106;SDS011;4589;48.690;8.952;2022-12-08T04:16:34;14.03;;;9.23;;
9106;SDS011;4589;48.690;8.952;2022-12-08T04:18:59;16.23;;;8.63;;
9106;SDS011;4589;48.690;8.952;2022-12-08T04:21:26;13.90;;;8.43;;
9106;SDS011;4589;48.690;8.952;2022-12-08T04:23:52;11.82;;;7.88;;
9106;SDS011;4589;48.690;8.952;2022-12-08T04:26:18;17.83;;;8.50;;
9106;SDS011;4589;48.690;8.952;2022-12-08T04:28:43;15.23;;;8.63;;
9106;SDS011;4589;48.690;8.952;2022-12-08T04:31:09;17.87;;;9.53;;
9106;SDS011;4589;48.690;8.952;2022-12-08T04:33:35;13.30;;;8.10;;
9106;SDS011;4589;48.690;8.952;2022-12-08T04:36:01;14.95;;;8.60;;
9106;SDS011;4589;48.690;8.952;2022-12-08T04:38:28;18.52;;;10.93;;
9106;SDS011;4589;48.690;8.952;2022-12-08T04:40:53;15.20;;;8.17;;
9106;SDS011;4589;48.690;8.952;2022-12-08T04:43:19;16.57;;;9.20;;
9106;SDS011;4589;48.690;8.952;2022-12-08T04:45:45;19.57;;;10.30;;
9106;SDS011;4589;48.690;8.952;2022-12-08T04:48:10;16.80;;;10.10;;
9106;SDS011;4589;48.690;8.952;2022-12-08T04:50:38;15.85;;;9.50;;
9106;SDS011;4589;48.690;8.952;2022-12-08T04:53:07;13.75;;;8.52;;
9106;SDS011;4589;48.690;8.952;2022-12-08T04:55:36;13.23;;;8.52;;
9106;SDS011;4589;48.690;8.952;2022-12-08T04:58:04;13.52;;;8.48;;
9106;SDS011;4589;48.690;8.952;2022-12-08T05:00:29;16.17;;;9.77;;
9106;SDS011;4589;48.690;8.952;2022-12-08T05:02:55;17.77;;;10.00;;
9106;SDS011;4589;48.690;8.952;2022-12-08T05:05:20;19.50;;;9.73;;
9106;SDS011;4589;48.690;8.952;2022-12-08T05:07:46;20.10;;;10.63;;
9106;SDS011;4589;48.690;8.952;2022-12-08T05:10:12;35.77;;;19.40;;
9106;SDS011;4589;48.690;8.952;2022-12-08T05:12:38;37.70;;;22.13;;
9106;SDS011;4589;48.690;8.952;2022-12-08T05:15:03;31.00;;;17.07;;
9106;SDS011;4589;48.690;8.952;2022-12-08T05:17:29;26.17;;;13.80;;
9106;SDS011;4589;48.690;8.952;2022-12-08T05:19:55;26.77;;;15.90;;
9106;SDS011;4589;48.690;8.952;2022-12-08T05:22:21;23.23;;;14.52;;
9106;SDS011;4589;48.690;8.952;2022-12-08T05:24:47;15.23;;;9.30;;
9106;SDS011;4589;48.690;8.952;2022-12-08T05:27:12;14.30;;;8.50;;
9106;SDS011;4589;48.690;8.952;2022-12-08T05:29:38;13.80;;;8.00;;
9106;SDS011;4589;48.690;8.952;2022-12-08T05:32:04;14.37;;;8.37;;
9106;SDS011;4589;48.690;8.952;2022-12-08T05:34:30;14.07;;;8.20;;
9106;SDS011;4589;48.690;8.952;2022-12-08T05:36:56;19.63;;;8.70;;
9106;SDS011;4589;48.690;8.952;2022-12-08T05:39:22;11.43;;;6.23;;
9106;SDS011;4589;48.690;8.952;2022-12-08T05:41:47;10.60;;;6.97;;
9106;SDS011;4589;48.690;8.952;2022-12-08T05:44:13;11.27;;;7.53;;
9106;SDS011;4589;48.690;8.952;2022-12-08T05:46:39;13.80;;;6.97;;
9106;SDS011;4589;48.690;8.952;2022-12-08T05:49:05;10.73;;;6.43;;
9106;SDS011;4589;48.690;8.952;2022-12-08T05:51:30;12.03;;;5.90;;
9106;SDS011;4589;48.690;8.952;2022-12-08T05:53:56;10.30;;;6.93;;
9106;SDS011;4589;48.690;8.952;2022-12-08T05:56:22;11.83;;;7.67;;
9106;SDS011;4589;48.690;8.952;2022-12-08T05:58:48;20.47;;;10.10;;
9106;SDS011;4589;48.690;8.952;2022-12-08T06:01:21;16.10;;;10.67;;
9106;SDS011;4589;48.690;8.952;2022-12-08T06:03:48;19.83;;;10.75;;
9106;SDS011;4589;48.690;8.952;2022-12-08T06:06:14;21.83;;;12.10;;
9106;SDS011;4589;48.690;8.952;2022-12-08T06:08:40;21.52;;;10.75;;
9106;SDS011;4589;48.690;8.952;2022-12-08T06:11:06;22.50;;;11.60;;
9106;SDS011;4589;48.690;8.952;2022-12-08T06:13:32;15.27;;;9.23;;
9106;SDS011;4589;48.690;8.952;2022-12-08T06:16:04;21.63;;;11.97;;
9106;SDS011;4589;48.690;8.952;2022-12-08T06:18:31;13.48;;;10.20;;
9106;SDS011;4589;48.690;8.952;2022-12-08T06:21:04;20.90;;;10.13;;
9106;SDS011;4589;48.690;8.952;2022-12-08T06:23:34;18.75;;;10.45;;
9106;SDS011;4589;48.690;8.952;2022-12-08T06:26:01;20.40;;;11.15;;
9106;SDS011;4589;48.690;8.952;2022-12-08T06:28:28;22.77;;;11.40;;
9106;SDS011;4589;48.690;8.952;2022-12-08T06:30:54;21.98;;;12.13;;
9106;SDS011;4589;48.690;8.952;2022-12-08T06:33:20;22.40;;;11.40;;
9106;SDS011;4589;48.690;8.952;2022-12-08T06:35:45;19.43;;;12.00;;
9106;SDS011;4589;48.690;8.952;2022-12-08T06:38:11;31.70;;;20.80;;
9106;SDS011;4589;48.690;8.952;2022-12-08T06:40:37;27.50;;;15.03;;
9106;SDS011;4589;48.690;8.952;2022-12-08T06:43:03;20.50;;;13.47;;
9106;SDS011;4589;48.690;8.952;2022-12-08T06:45:29;21.77;;;12.57;;
9106;SDS011;4589;48.690;8.952;2022-12-08T06:47:55;31.60;;;18.60;;
9106;SDS011;4589;48.690;8.952;2022-12-08T06:50:21;14.47;;;9.40;;
9106;SDS011;4589;48.690;8.952;2022-12-08T06:52:47;16.10;;;8.47;;
9106;SDS011;4589;48.690;8.952;2022-12-08T06:55:13;14.80;;;9.10;;
9106;SDS011;4589;48.690;8.952;2022-12-08T06:57:38;14.93;;;8.80;;
9106;SDS011;4589;48.690;8.952;2022-12-08T07:00:04;13.37;;;7.90;;
9106;SDS011;4589;48.690;8.952;2022-12-08T07:02:30;16.65;;;9.43;;
9106;SDS011;4589;48.690;8.952;2022-12-08T07:04:57;17.77;;;9.25;;
9106;SDS011;4589;48.690;8.952;2022-12-08T07:07:23;16.30;;;9.45;;
9106;SDS011;4589;48.690;8.952;2022-12-08T07:09:49;17.43;;;11.17;;
9106;SDS011;4589;48.690;8.952;2022-12-08T07:12:15;20.52;;;12.35;;
9106;SDS011;4589;48.690;8.952;2022-12-08T07:14:41;17.03;;;10.93;;
9106;SDS011;4589;48.690;8.952;2022-12-08T07:17:06;21.17;;;11.13;;
9106;SDS011;4589;48.690;8.952;2022-12-08T07:19:32;20.13;;;11.13;;
9106;SDS011;4589;48.690;8.952;2022-12-08T07:21:57;18.03;;;10.57;;
9106;SDS011;4589;48.690;8.952;2022-12-08T07:24:23;18.47;;;10.77;;
9106;SDS011;4589;48.690;8.952;2022-12-08T07:26:49;14.30;;;9.07;;
9106;SDS011;4589;48.690;8.952;2022-12-08T07:29:15;26.45;;;10.23;;
9106;SDS011;4589;48.690;8.952;2022-12-08T07:31:41;13.80;;;10.13;;
9106;SDS011;4589;48.690;8.952;2022-12-08T07:34:08;16.52;;;9.68;;
9106;SDS011;4589;48.690;8.952;2022-12-08T07:36:36;13.95;;;9.27;;
9106;SDS011;4589;48.690;8.952;2022-12-08T07:39:01;15.60;;;9.50;;
9106;SDS011;4589;48.690;8.952;2022-12-08T07:41:27;13.53;;;8.30;;
9106;SDS011;4589;48.690;8.952;2022-12-08T07:43:53;18.60;;;13.00;;
9106;SDS011;4589;48.690;8.952;2022-12-08T07:46:20;17.38;;;10.18;;
9106;SDS011;4589;48.690;8.952;2022-12-08T07:48:47;16.20;;;8.70;;
9106;SDS011;4589;48.690;8.952;2022-12-08T07:51:14;15.38;;;9.30;;
9106;SDS011;4589;48.690;8.952;2022-12-08T07:53:40;15.10;;;9.40;;
9106;SDS011;4589;48.690;8.952;2022-12-08T07:56:08;17.30;;;10.10;;
9106;SDS011;4589;48.690;8.952;2022-12-08T07:58:35;16.15;;;9.15;;
9106;SDS011;4589;48.690;8.952;2022-12-08T08:01:00;11.13;;;7.30;;
9106;SDS011;4589;48.690;8.952;2022-12-08T08:03:26;12.83;;;8.37;;
9106;SDS011;4589;48.690;8.952;2022-12-08T08:05:52;12.13;;;7.90;;
9106;SDS011;4589;48.690;8.952;2022-12-08T08:08:17;10.70;;;8.40;;
9106;SDS011;4589;48.690;8.952;2022-12-08T08:10:44;12.10;;;8.70;;
9106;SDS011;4589;48.690;8.952;2022-12-08T08:13:11;10.03;;;8.00;;
9106;SDS011;4589;48.690;8.952;2022-12-08T08:15:37;10.20;;;7.00;;
9106;SDS011;4589;48.690;8.952;2022-12-08T08:18:03;11.40;;;7.97;;
9106;SDS011;4589;48.690;8.952;2022-12-08T08:20:29;11.30;;;8.33;;
9106;SDS011;4589;48.690;8.952;2022-12-08T08:22:55;9.33;;;7.40;;
9106;SDS011;4589;48.690;8.952;2022-12-08T08:25:21;13.80;;;7.83;;
9106;SDS011;4589;48.690;8.952;2022-12-08T08:27:47;11.00;;;7.67;;
9106;SDS011;4589;48.690;8.952;2022-12-08T08:30:13;10.67;;;7.00;;
9106;SDS011;4589;48.690;8.952;2022-12-08T08:32:39;9.70;;;7.53;;
9106;SDS011;4589;48.690;8.952;2022-12-08T08:35:05;12.80;;;6.90;;
9106;SDS011;4589;48.690;8.952;2022-12-08T08:37:32;11.07;;;8.27;;
9106;SDS011;4589;48.690;8.952;2022-12-08T08:39:58;8.40;;;7.00;;
9106;SDS011;4589;48.690;8.952;2022-12-08T08:42:23;8.50;;;6.40;;
9106;SDS011;4589;48.690;8.952;2022-12-08T08:44:49;12.60;;;7.23;;
9106;SDS011;4589;48.690;8.952;2022-12-08T08:47:15;11.30;;;7.00;;
9106;SDS011;4589;48.690;8.952;2022-12-08T08:49:41;9.97;;;7.50;;
9106;SDS011;4589;48.690;8.952;2022-12-08T08:52:07;9.40;;;6.60;;
9106;SDS011;4589;48.690;8.952;2022-12-08T08:54:33;10.07;;;7.47;;
9106;SDS011;4589;48.690;8.952;2022-12-08T08:56:59;9.70;;;6.60;;
9106;SDS011;4589;48.690;8.952;2022-12-08T08:59:25;9.80;;;7.50;;
9106;SDS011;4589;48.690;8.952;2022-12-08T09:01:52;11.87;;;7.23;;
9106;SDS011;4589;48.690;8.952;2022-12-08T09:04:19;9.33;;;7.00;;
9106;SDS011;4589;48.690;8.952;2022-12-08T09:06:45;12.00;;;7.80;;
9106;SDS011;4589;48.690;8.952;2022-12-08T09:09:12;8.97;;;6.90;;
9106;SDS011;4589;48.690;8.952;2022-12-08T09:11:38;8.70;;;7.00;;
9106;SDS011;4589;48.690;8.952;2022-12-08T09:14:03;8.17;;;5.90;;
9106;SDS011;4589;48.690;8.952;2022-12-08T09:16:29;8.50;;;6.70;;
9106;SDS011;4589;48.690;8.952;2022-12-08T09:18:55;7.30;;;6.03;;
9106;SDS011;4589;48.690;8.952;2022-12-08T09:21:25;10.30;;;6.60;;
9106;SDS011;4589;48.690;8.952;2022-12-08T09:23:55;8.43;;;6.47;;
9106;SDS011;4589;48.690;8.952;2022-12-08T09:26:22;9.23;;;6.57;;
9106;SDS011;4589;48.690;8.952;2022-12-08T09:28:49;9.97;;;7.00;;
9106;SDS011;4589;48.690;8.952;2022-12-08T09:31:16;7.70;;;6.43;;
9106;SDS011;4589;48.690;8.952;2022-12-08T09:33:43;10.80;;;6.70;;
9106;SDS011;4589;48.690;8.952;2022-12-08T09:36:09;10.63;;;6.70;;
9106;SDS011;4589;48.690;8.952;2022-12-08T09:38:35;8.13;;;6.23;;
9106;SDS011;4589;48.690;8.952;2022-12-08T09:41:02;9.73;;;7.20;;
9106;SDS011;4589;48.690;8.952;2022-12-08T09:43:45;9.40;;;7.50;;
9106;SDS011;4589;48.690;8.952;2022-12-08T09:46:33;7.60;;;6.13;;
9106;SDS011;4589;48.690;8.952;2022-12-08T09:49:01;6.70;;;5.97;;
9106;SDS011;4589;48.690;8.952;2022-12-08T09:51:33;7.20;;;5.70;;
9106;SDS011;4589;48.690;8.952;2022-12-08T09:54:14;6.30;;;5.07;;
9106;SDS011;4589;48.690;8.952;2022-12-08T09:56:43;8.10;;;6.30;;
9106;SDS011;4589;48.690;8.952;2022-12-08T09:59:22;8.83;;;5.90;;
9106;SDS011;4589;48.690;8.952;2022-12-08T10:01:55;5.70;;;4.80;;
9106;SDS011;4589;48.690;8.952;2022-12-08T10:04:25;7.67;;;5.93;;
9106;SDS011;4589;48.690;8.952;2022-12-08T10:09:47;6.50;;;5.00;;
9106;SDS011;4589;48.690;8.952;2022-12-08T10:12:41;7.17;;;5.40;;
9106;SDS011;4589;48.690;8.952;2022-12-08T10:15:13;6.27;;;4.80;;
9106;SDS011;4589;48.690;8.952;2022-12-08T10:17:43;7.83;;;5.30;;
9106;SDS011;4589;48.690;8.952;2022-12-08T10:20:17;5.90;;;5.30;;
9106;SDS011;4589;48.690;8.952;2022-12-08T10:22:49;6.67;;;5.33;;
9106;SDS011;4589;48.690;8.952;2022-12-08T10:25:38;5.57;;;4.63;;
9106;SDS011;4589;48.690;8.952;2022-12-08T10:28:09;9.20;;;5.50;;
9106;SDS011;4589;48.690;8.952;2022-12-08T10:30:35;7.30;;;5.50;;
9106;SDS011;4589;48.690;8.952;2022-12-08T10:33:01;6.77;;;5.20;;
9106;SDS011;4589;48.690;8.952;2022-12-08T10:35:47;5.57;;;5.00;;
9106;SDS011;4589;48.690;8.952;2022-12-08T10:38:15;6.00;;;5.40;;
9106;SDS011;4589;48.690;8.952;2022-12-08T10:40:43;7.13;;;5.53;;
9106;SDS011;4589;48.690;8.952;2022-12-08T10:43:17;8.33;;;5.63;;
9106;SDS011;4589;48.690;8.952;2022-12-08T10:45:46;7.30;;;5.40;;
9106;SDS011;4589;48.690;8.952;2022-12-08T10:48:13;6.00;;;5.17;;
9106;SDS011;4589;48.690;8.952;2022-12-08T10:50:54;7.73;;;5.80;;
9106;SDS011;4589;48.690;8.952;2022-12-08T10:53:22;8.50;;;5.40;;
9106;SDS011;4589;48.690;8.952;2022-12-08T10:58:28;7.13;;;6.07;;
9106;SDS011;4589;48.690;8.952;2022-12-08T11:01:20;7.20;;;6.10;;
9106;SDS011;4589;48.690;8.952;2022-12-08T11:06:17;8.40;;;5.77;;
9106;SDS011;4589;48.690;8.952;2022-12-08T11:11:21;9.23;;;5.77;;
9106;SDS011;4589;48.690;8.952;2022-12-08T11:14:03;6.40;;;5.70;;
9106;SDS011;4589;48.690;8.952;2022-12-08T11:16:30;7.40;;;5.03;;
9106;SDS011;4589;48.690;8.952;2022-12-08T11:18:57;6.50;;;5.40;;
9106;SDS011;4589;48.690;8.952;2022-12-08T11:21:29;6.40;;;5.00;;
9106;SDS011;4589;48.690;8.952;2022-12-08T11:26:38;5.90;;;5.30;;
9106;SDS011;4589;48.690;8.952;2022-12-08T11:29:07;7.27;;;5.30;;
9106;SDS011;4589;48.690;8.952;2022-12-08T11:31:41;10.00;;;5.90;;
9106;SDS011;4589;48.690;8.952;2022-12-08T11:34:16;6.23;;;5.40;;
9106;SDS011;4589;48.690;8.952;2022-12-08T11:36:51;7.37;;;6.30;;
9106;SDS011;4589;48.690;8.952;2022-12-08T11:39:18;10.30;;;5.80;;
9106;SDS011;4589;48.690;8.952;2022-12-08T11:41:45;7.73;;;5.87;;
9106;SDS011;4589;48.690;8.952;2022-12-08T11:47:06;8.43;;;6.23;;
9106;SDS011;4589;48.690;8.952;2022-12-08T11:49:46;9.70;;;7.00;;
9106;SDS011;4589;48.690;8.952;2022-12-08T11:54:43;10.70;;;5.87;;
9106;SDS011;4589;48.690;8.952;2022-12-08T11:57:16;7.40;;;5.53;;
9106;SDS011;4589;48.690;8.952;2022-12-08T11:59:47;6.47;;;5.30;;
9106;SDS011;4589;48.690;8.952;2022-12-08T12:02:22;9.60;;;5.23;;
9106;SDS011;4589;48.690;8.952;2022-12-08T12:13:25;10.40;;;6.03;;
9106;SDS011;4589;48.690;8.952;2022-12-08T12:23:58;5.70;;;4.63;;
9106;SDS011;4589;48.690;8.952;2022-12-08T12:26:36;7.60;;;4.97;;
9106;SDS011;4589;48.690;8.952;2022-12-08T12:31:33;6.27;;;5.20;;
9106;SDS011;4589;48.690;8.952;2022-12-08T12:36:50;7.27;;;5.37;;
9106;SDS011;4589;48.690;8.952;2022-12-08T12:39:19;8.00;;;5.30;;
9106;SDS011;4589;48.690;8.952;2022-12-08T12:41:49;6.00;;;5.40;;
9106;SDS011;4589;48.690;8.952;2022-12-08T12:52:02;6.70;;;5.03;;
9106;SDS011;4589;48.690;8.952;2022-12-08T12:54:34;5.63;;;4.70;;
9106;SDS011;4589;48.690;8.952;2022-12-08T12:59:38;5.10;;;4.60;;
9106;SDS011;4589;48.690;8.952;2022-12-08T13:02:17;5.40;;;4.50;;
9106;SDS011;4589;48.690;8.952;2022-12-08T13:04:45;5.40;;;3.93;;
9106;SDS011;4589;48.690;8.952;2022-12-08T13:07:34;7.00;;;4.57;;
9106;SDS011;4589;48.690;8.952;2022-12-08T13:10:21;4.97;;;3.80;;
9106;SDS011;4589;48.690;8.952;2022-12-08T13:13:14;5.83;;;4.77;;
9106;SDS011;4589;48.690;8.952;2022-12-08T13:15:52;5.93;;;4.40;;
9106;SDS011;4589;48.690;8.952;2022-12-08T13:20:53;8.80;;;4.80;;
9106;SDS011;4589;48.690;8.952;2022-12-08T13:23:26;5.13;;;4.63;;
9106;SDS011;4589;48.690;8.952;2022-12-08T13:26:12;7.20;;;5.50;;
9106;SDS011;4589;48.690;8.952;2022-12-08T13:34:04;7.17;;;5.63;;
9106;SDS011;4589;48.690;8.952;2022-12-08T13:36:31;7.93;;;4.97;;
9106;SDS011;4589;48.690;8.952;2022-12-08T13:39:02;7.33;;;5.40;;
9106;SDS011;4589;48.690;8.952;2022-12-08T13:41:40;8.97;;;5.40;;
9106;SDS011;4589;48.690;8.952;2022-12-08T13:44:13;6.40;;;4.80;;
9106;SDS011;4589;48.690;8.952;2022-12-08T13:46:50;6.80;;;5.27;;
9106;SDS011;4589;48.690;8.952;2022-12-08T13:49:22;7.60;;;5.50;;
9106;SDS011;4589;48.690;8.952;2022-12-08T13:51:52;11.10;;;4.67;;
9106;SDS011;4589;48.690;8.952;2022-12-08T13:54:20;5.87;;;4.63;;
9106;SDS011;4589;48.690;8.952;2022-12-08T13:56:58;9.97;;;5.70;;
9106;SDS011;4589;48.690;8.952;2022-12-08T13:59:27;6.53;;;5.10;;
9106;SDS011;4589;48.690;8.952;2022-12-08T14:01:59;8.70;;;6.50;;
9106;SDS011;4589;48.690;8.952;2022-12-08T14:04:29;6.43;;;4.50;;
9106;SDS011;4589;48.690;8.952;2022-12-08T14:06:56;6.40;;;5.07;;
9106;SDS011;4589;48.690;8.952;2022-12-08T14:09:24;6.60;;;4.70;;
9106;SDS011;4589;48.690;8.952;2022-12-08T14:12:00;10.43;;;5.70;;
9106;SDS011;4589;48.690;8.952;2022-12-08T14:16:55;8.93;;;6.23;;
9106;SDS011;4589;48.690;8.952;2022-12-08T14:19:25;9.23;;;4.80;;
9106;SDS011;4589;48.690;8.952;2022-12-08T14:24:25;7.20;;;4.77;;
9106;SDS011;4589;48.690;8.952;2022-12-08T14:26:52;7.20;;;4.80;;
9106;SDS011;4589;48.690;8.952;2022-12-08T14:29:35;6.63;;;4.50;;
9106;SDS011;4589;48.690;8.952;2022-12-08T14:32:23;5.43;;;3.90;;
9106;SDS011;4589;48.690;8.952;2022-12-08T14:34:56;6.37;;;3.80;;
9106;SDS011;4589;48.690;8.952;2022-12-08T14:37:32;6.00;;;4.27;;
9106;SDS011;4589;48.690;8.952;2022-12-08T14:42:47;4.40;;;3.57;;
9106;SDS011;4589;48.690;8.952;2022-12-08T14:45:16;6.70;;;4.10;;
9106;SDS011;4589;48.690;8.952;2022-12-08T14:47:43;5.30;;;3.30;;
9106;SDS011;4589;48.690;8.952;2022-12-08T14:53:17;5.77;;;4.20;;
9106;SDS011;4589;48.690;8.952;2022-12-08T14:55:43;5.40;;;4.03;;
9106;SDS011;4589;48.690;8.952;2022-12-08T14:58:16;5.20;;;3.80;;
9106;SDS011;4589;48.690;8.952;2022-12-08T15:00:48;5.13;;;4.30;;
9106;SDS011;4589;48.690;8.952;2022-12-08T15:03:16;4.70;;;3.50;;
9106;SDS011;4589;48.690;8.952;2022-12-08T15:05:43;7.00;;;4.90;;
9106;SDS011;4589;48.690;8.952;2022-12-08T15:08:08;6.35;;;4.40;;
9106;SDS011;4589;48.690;8.952;2022-12-08T15:10:36;5.90;;;4.67;;
9106;SDS011;4589;48.690;8.952;2022-12-08T15:15:30;10.37;;;5.67;;
9106;SDS011;4589;48.690;8.952;2022-12-08T15:18:27;57.53;;;27.63;;
9106;SDS011;4589;48.690;8.952;2022-12-08T15:21:02;12.27;;;7.37;;
9106;SDS011;4589;48.690;8.952;2022-12-08T15:23:31;5.50;;;5.00;;
9106;SDS011;4589;48.690;8.952;2022-12-08T15:26:20;9.18;;;4.70;;
9106;SDS011;4589;48.690;8.952;2022-12-08T15:28:47;7.25;;;4.93;;
9106;SDS011;4589;48.690;8.952;2022-12-08T15:31:14;14.57;;;7.27;;
9106;SDS011;4589;48.690;8.952;2022-12-08T15:33:40;72.07;;;26.53;;
9106;SDS011;4589;48.690;8.952;2022-12-08T15:36:06;112.60;;;43.10;;
9106;SDS011;4589;48.690;8.952;2022-12-08T15:38:32;54.60;;;24.10;;
9106;SDS011;4589;48.690;8.952;2022-12-08T15:40:58;20.87;;;11.73;;
9106;SDS011;4589;48.690;8.952;2022-12-08T15:43:24;5.23;;;4.40;;
9106;SDS011;4589;48.690;8.952;2022-12-08T15:45:50;15.40;;;6.93;;
9106;SDS011;4589;48.690;8.952;2022-12-08T15:48:27;9.15;;;6.18;;
9106;SDS011;4589;48.690;8.952;2022-12-08T15:50:54;5.27;;;4.37;;
9106;SDS011;4589;48.690;8.952;2022-12-08T15:53:20;5.13;;;4.15;;
9106;SDS011;4589;48.690;8.952;2022-12-08T15:55:46;7.30;;;4.90;;
9106;SDS011;4589;48.690;8.952;2022-12-08T15:58:19;7.60;;;4.70;;
9106;SDS011;4589;48.690;8.952;2022-12-08T16:00:47;7.10;;;4.55;;
9106;SDS011;4589;48.690;8.952;2022-12-08T16:03:18;21.92;;;4.97;;
9106;SDS011;4589;48.690;8.952;2022-12-08T16:05:45;6.43;;;4.28;;
9106;SDS011;4589;48.690;8.952;2022-12-08T16:08:13;7.53;;;4.67;;
9106;SDS011;4589;48.690;8.952;2022-12-08T16:10:40;9.98;;;5.97;;
9106;SDS011;4589;48.690;8.952;2022-12-08T16:13:16;8.82;;;5.53;;
9106;SDS011;4589;48.690;8.952;2022-12-08T16:16:02;7.07;;;4.82;;
9106;SDS011;4589;48.690;8.952;2022-12-08T16:18:34;6.30;;;4.65;;
9106;SDS011;4589;48.690;8.952;2022-12-08T16:21:02;7.20;;;4.70;;
9106;SDS011;4589;48.690;8.952;2022-12-08T16:23:28;7.72;;;5.75;;
9106;SDS011;4589;48.690;8.952;2022-12-08T16:25:54;8.70;;;5.40;;
9106;SDS011;4589;48.690;8.952;2022-12-08T16:28:20;6.30;;;4.40;;
9106;SDS011;4589;48.690;8.952;2022-12-08T16:30:46;7.70;;;5.20;;
9106;SDS011;4589;48.690;8.952;2022-12-08T16:33:12;7.43;;;5.05;;
9106;SDS011;4589;48.690;8.952;2022-12-08T16:35:39;12.02;;;5.30;;
9106;SDS011;4589;48.690;8.952;2022-12-08T16:38:05;6.47;;;5.32;;
9106;SDS011;4589;48.690;8.952;2022-12-08T16:40:31;12.13;;;5.80;;
9106;SDS011;4589;48.690;8.952;2022-12-08T16:43:17;10.57;;;6.05;;
9106;SDS011;4589;48.690;8.952;2022-12-08T16:45:43;12.33;;;6.47;;
9106;SDS011;4589;48.690;8.952;2022-12-08T16:48:09;6.87;;;4.67;;
9106;SDS011;4589;48.690;8.952;2022-12-08T16:50:38;11.80;;;5.40;;
9106;SDS011;4589;48.690;8.952;2022-12-08T16:53:09;9.23;;;5.25;;
9106;SDS011;4589;48.690;8.952;2022-12-08T16:55:36;8.70;;;5.25;;
9106;SDS011;4589;48.690;8.952;2022-12-08T16:58:02;6.25;;;5.45;;
9106;SDS011;4589;48.690;8.952;2022-12-08T17:00:28;8.70;;;4.57;;
9106;SDS011;4589;48.690;8.952;2022-12-08T17:03:00;8.07;;;5.60;;